sensor_id;sensor_type;location;lat;lon;timestamp;pressure;altitude;pressure_sealevel;temperature;humidity
49342;BME280;35210;41.606;-87.602;2023-02-20T00:01:46;98817.56;;;13.30;44.66
49342;BME280;35210;41.606;-87.602;2023-02-20T00:04:14;98820.56;;;13.18;44.68
49342;BME280;35210;41.606;-87.602;2023-02-20T00:06:43;98822.78;;;13.12;45.18
49342;BME280;35210;41.606;-87.602;2023-02-20T00:09:11;98824.06;;;13.08;45.54
49342;BME280;35210;41.606;-87.602;2023-02-20T00:11:41;98830.16;;;12.91;45.79
49342;BME280;35210;41.606;-87.602;2023-02-20T00:14:09;98840.66;;;12.83;45.41
49342;BME280;35210;41.606;-87.602;2023-02-20T00:16:37;98828.41;;;12.82;46.19
49342;BME280;35210;41.606;-87.602;2023-02-20T00:19:05;98841.41;;;12.75;46.52
49342;BME280;35210;41.606;-87.602;2023-02-20T00:21:34;98834.69;;;12.54;47.36
49342;BME280;35210;41.606;-87.602;2023-02-20T00:24:02;98846.72;;;12.38;47.45
49342;BME280;35210;41.606;-87.602;2023-02-20T00:26:30;98858.00;;;12.40;47.73
49342;BME280;35210;41.606;-87.602;2023-02-20T00:29:00;98846.03;;;12.36;47.85
49342;BME280;35210;41.606;-87.602;2023-02-20T00:31:28;98856.91;;;12.33;48.03
49342;BME280;35210;41.606;-87.602;2023-02-20T00:33:56;98850.63;;;12.34;48.04
49342;BME280;35210;41.606;-87.602;2023-02-20T00:36:24;98855.22;;;12.32;48.26
49342;BME280;35210;41.606;-87.602;2023-02-20T00:38:52;98862.19;;;12.33;48.80
49342;BME280;35210;41.606;-87.602;2023-02-20T00:41:20;98870.81;;;12.35;48.53
49342;BME280;35210;41.606;-87.602;2023-02-20T00:43:48;98873.06;;;12.30;48.54
49342;BME280;35210;41.606;-87.602;2023-02-20T00:46:18;98867.47;;;12.33;49.14
49342;BME280;35210;41.606;-87.602;2023-02-20T00:48:48;98875.03;;;12.28;49.04
49342;BME280;35210;41.606;-87.602;2023-02-20T00:51:17;98871.28;;;12.21;49.22
49342;BME280;35210;41.606;-87.602;2023-02-20T00:53:46;98875.59;;;12.22;48.66
49342;BME280;35210;41.606;-87.602;2023-02-20T00:56:15;98882.56;;;12.13;49.35
49342;BME280;35210;41.606;-87.602;2023-02-20T00:58:44;98878.94;;;12.14;49.08
49342;BME280;35210;41.606;-87.602;2023-02-20T01:01:12;98891.19;;;12.15;49.11
49342;BME280;35210;41.606;-87.602;2023-02-20T01:03:44;98886.75;;;12.16;48.85
49342;BME280;35210;41.606;-87.602;2023-02-20T01:06:13;98883.41;;;12.14;49.29
49342;BME280;35210;41.606;-87.602;2023-02-20T01:08:41;98892.59;;;12.10;49.61
49342;BME280;35210;41.606;-87.602;2023-02-20T01:11:09;98890.78;;;12.10;49.30
49342;BME280;35210;41.606;-87.602;2023-02-20T01:13:39;98895.09;;;12.11;49.26
49342;BME280;35210;41.606;-87.602;2023-02-20T01:16:07;98895.09;;;12.02;49.44
49342;BME280;35210;41.606;-87.602;2023-02-20T01:18:36;98899.56;;;12.01;49.68
49342;BME280;35210;41.606;-87.602;2023-02-20T01:21:06;98907.94;;;11.87;50.38
49342;BME280;35210;41.606;-87.602;2023-02-20T01:23:35;98913.94;;;11.79;50.82
49342;BME280;35210;41.606;-87.602;2023-02-20T01:26:04;98908.16;;;11.65;51.30
49342;BME280;35210;41.606;-87.602;2023-02-20T01:28:34;98904.28;;;11.59;51.70
49342;BME280;35210;41.606;-87.602;2023-02-20T01:31:02;98911.50;;;11.57;51.64
49342;BME280;35210;41.606;-87.602;2023-02-20T01:33:30;98910.66;;;11.57;51.55
49342;BME280;35210;41.606;-87.602;2023-02-20T01:35:59;98906.50;;;11.54;52.16
49342;BME280;35210;41.606;-87.602;2023-02-20T01:38:29;98907.47;;;11.53;51.73
49342;BME280;35210;41.606;-87.602;2023-02-20T01:40:57;98907.88;;;11.58;51.86
49342;BME280;35210;41.606;-87.602;2023-02-20T01:43:26;98910.09;;;11.53;51.90
49342;BME280;35210;41.606;-87.602;2023-02-20T01:49:21;98911.44;;;11.28;52.99
49342;BME280;35210;41.606;-87.602;2023-02-20T01:51:54;98904.19;;;11.20;52.88
49342;BME280;35210;41.606;-87.602;2023-02-20T01:54:29;98901.69;;;11.19;53.23
49342;BME280;35210;41.606;-87.602;2023-02-20T01:57:01;98905.00;;;11.21;53.44
49342;BME280;35210;41.606;-87.602;2023-02-20T01:59:32;98909.19;;;11.24;53.87
49342;BME280;35210;41.606;-87.602;2023-02-20T02:02:03;98906.56;;;11.24;53.75
49342;BME280;35210;41.606;-87.602;2023-02-20T02:04:33;98900.84;;;11.18;54.08
49342;BME280;35210;41.606;-87.602;2023-02-20T02:07:03;98899.16;;;11.17;54.21
49342;BME280;35210;41.606;-87.602;2023-02-20T02:09:39;98901.09;;;11.15;54.03
49342;BME280;35210;41.606;-87.602;2023-02-20T02:12:09;98910.16;;;11.13;54.34
49342;BME280;35210;41.606;-87.602;2023-02-20T02:14:38;98905.69;;;11.04;54.64
49342;BME280;35210;41.606;-87.602;2023-02-20T02:17:20;98897.84;;;10.93;55.80
49342;BME280;35210;41.606;-87.602;2023-02-20T02:23:38;98905.66;;;10.64;57.01
49342;BME280;35210;41.606;-87.602;2023-02-20T02:26:31;98900.09;;;10.67;56.30
49342;BME280;35210;41.606;-87.602;2023-02-20T02:29:36;98901.50;;;10.71;56.71
49342;BME280;35210;41.606;-87.602;2023-02-20T02:32:35;98900.28;;;10.75;56.79
49342;BME280;35210;41.606;-87.602;2023-02-20T02:38:19;98903.63;;;10.77;57.82
49342;BME280;35210;41.606;-87.602;2023-02-20T02:40:55;98906.00;;;10.80;57.57
49342;BME280;35210;41.606;-87.602;2023-02-20T02:43:34;98918.41;;;10.59;58.46
49342;BME280;35210;41.606;-87.602;2023-02-20T02:46:08;98913.06;;;10.49;59.57
49342;BME280;35210;41.606;-87.602;2023-02-20T02:48:46;98922.09;;;10.26;60.42
49342;BME280;35210;41.606;-87.602;2023-02-20T02:51:19;98924.16;;;10.22;60.31
49342;BME280;35210;41.606;-87.602;2023-02-20T02:54:05;98918.19;;;10.20;60.23
49342;BME280;35210;41.606;-87.602;2023-02-20T02:56:37;98916.00;;;10.25;60.41
49342;BME280;35210;41.606;-87.602;2023-02-20T02:59:08;98923.19;;;10.23;60.44
49342;BME280;35210;41.606;-87.602;2023-02-20T03:01:41;98920.06;;;10.18;60.41
49342;BME280;35210;41.606;-87.602;2023-02-20T03:04:10;98927.91;;;10.19;60.57
49342;BME280;35210;41.606;-87.602;2023-02-20T03:06:43;98928.84;;;10.18;60.17
49342;BME280;35210;41.606;-87.602;2023-02-20T03:09:17;98930.72;;;9.96;60.83
49342;BME280;35210;41.606;-87.602;2023-02-20T03:11:51;98936.75;;;9.86;61.57
49342;BME280;35210;41.606;-87.602;2023-02-20T03:14:22;98947.56;;;9.83;61.15
49342;BME280;35210;41.606;-87.602;2023-02-20T03:17:16;98948.31;;;9.74;61.51
49342;BME280;35210;41.606;-87.602;2023-02-20T03:19:47;98942.38;;;9.61;60.87
49342;BME280;35210;41.606;-87.602;2023-02-20T03:22:18;98943.72;;;9.55;60.60
49342;BME280;35210;41.606;-87.602;2023-02-20T03:24:53;98943.72;;;9.55;61.17
49342;BME280;35210;41.606;-87.602;2023-02-20T03:27:28;98938.56;;;9.54;60.66
49342;BME280;35210;41.606;-87.602;2023-02-20T03:30:08;98933.88;;;9.58;59.76
49342;BME280;35210;41.606;-87.602;2023-02-20T03:32:39;98934.97;;;9.55;59.84
49342;BME280;35210;41.606;-87.602;2023-02-20T03:35:26;98932.16;;;9.68;59.78
49342;BME280;35210;41.606;-87.602;2023-02-20T03:38:16;98931.06;;;9.70;59.84
49342;BME280;35210;41.606;-87.602;2023-02-20T03:41:05;98918.25;;;9.66;59.13
49342;BME280;35210;41.606;-87.602;2023-02-20T03:43:52;98914.22;;;9.62;58.88
49342;BME280;35210;41.606;-87.602;2023-02-20T03:46:23;98922.72;;;9.65;59.21
49342;BME280;35210;41.606;-87.602;2023-02-20T03:48:54;98915.25;;;9.70;59.05
49342;BME280;35210;41.606;-87.602;2023-02-20T03:51:25;98913.19;;;9.74;59.29
49342;BME280;35210;41.606;-87.602;2023-02-20T03:53:54;98920.97;;;9.75;58.38
49342;BME280;35210;41.606;-87.602;2023-02-20T03:56:26;98924.44;;;9.76;57.60
49342;BME280;35210;41.606;-87.602;2023-02-20T03:59:00;98926.38;;;9.74;58.00
49342;BME280;35210;41.606;-87.602;2023-02-20T04:01:34;98924.06;;;9.60;58.67
49342;BME280;35210;41.606;-87.602;2023-02-20T04:04:06;98920.56;;;9.59;58.05
49342;BME280;35210;41.606;-87.602;2023-02-20T04:06:40;98915.78;;;9.64;58.89
49342;BME280;35210;41.606;-87.602;2023-02-20T04:09:22;98922.75;;;9.54;58.87
49342;BME280;35210;41.606;-87.602;2023-02-20T04:12:02;98924.66;;;9.52;58.59
49342;BME280;35210;41.606;-87.602;2023-02-20T04:14:34;98926.34;;;9.53;58.79
49342;BME280;35210;41.606;-87.602;2023-02-20T04:17:08;98923.97;;;9.50;58.91
49342;BME280;35210;41.606;-87.602;2023-02-20T04:19:40;98922.88;;;9.52;58.60
49342;BME280;35210;41.606;-87.602;2023-02-20T04:22:13;98916.88;;;9.50;58.89
49342;BME280;35210;41.606;-87.602;2023-02-20T04:24:48;98914.72;;;9.55;57.94
49342;BME280;35210;41.606;-87.602;2023-02-20T04:27:22;98912.34;;;9.52;58.79
49342;BME280;35210;41.606;-87.602;2023-02-20T04:29:51;98912.81;;;9.46;58.38
49342;BME280;35210;41.606;-87.602;2023-02-20T04:32:19;98908.53;;;9.34;59.15
49342;BME280;35210;41.606;-87.602;2023-02-20T04:34:48;98913.22;;;9.31;59.38
49342;BME280;35210;41.606;-87.602;2023-02-20T04:37:17;98912.25;;;9.32;59.24
49342;BME280;35210;41.606;-87.602;2023-02-20T04:39:46;98919.69;;;9.27;59.72
49342;BME280;35210;41.606;-87.602;2023-02-20T04:42:15;98907.59;;;9.24;59.81
49342;BME280;35210;41.606;-87.602;2023-02-20T04:44:46;98920.41;;;9.17;60.22
49342;BME280;35210;41.606;-87.602;2023-02-20T04:47:16;98909.75;;;9.19;60.35
49342;BME280;35210;41.606;-87.602;2023-02-20T04:49:46;98927.34;;;9.18;60.41
49342;BME280;35210;41.606;-87.602;2023-02-20T04:52:15;98927.72;;;9.25;59.97
49342;BME280;35210;41.606;-87.602;2023-02-20T04:54:43;98915.25;;;9.27;59.89
49342;BME280;35210;41.606;-87.602;2023-02-20T04:57:13;98904.13;;;9.23;59.91
49342;BME280;35210;41.606;-87.602;2023-02-20T04:59:41;98904.13;;;9.23;60.01
49342;BME280;35210;41.606;-87.602;2023-02-20T05:02:11;98913.69;;;9.25;60.29
49342;BME280;35210;41.606;-87.602;2023-02-20T05:04:40;98926.16;;;9.22;60.54
49342;BME280;35210;41.606;-87.602;2023-02-20T05:07:09;98932.50;;;9.20;60.72
49342;BME280;35210;41.606;-87.602;2023-02-20T05:09:37;98913.22;;;9.19;60.80
49342;BME280;35210;41.606;-87.602;2023-02-20T05:12:06;98928.78;;;9.22;60.70
49342;BME280;35210;41.606;-87.602;2023-02-20T05:14:35;98931.91;;;9.16;60.86
49342;BME280;35210;41.606;-87.602;2023-02-20T05:17:04;98939.09;;;9.14;61.08
49342;BME280;35210;41.606;-87.602;2023-02-20T05:19:34;98936.00;;;9.09;61.30
49342;BME280;35210;41.606;-87.602;2023-02-20T05:22:08;98934.31;;;9.08;61.70
49342;BME280;35210;41.606;-87.602;2023-02-20T05:24:47;98932.41;;;9.10;61.50
49342;BME280;35210;41.606;-87.602;2023-02-20T05:27:17;98929.88;;;9.09;61.88
49342;BME280;35210;41.606;-87.602;2023-02-20T05:29:46;98917.66;;;9.08;61.83
49342;BME280;35210;41.606;-87.602;2023-02-20T05:32:15;98912.41;;;9.08;61.55
49342;BME280;35210;41.606;-87.602;2023-02-20T05:34:46;98904.88;;;9.03;61.85
49342;BME280;35210;41.606;-87.602;2023-02-20T05:37:16;98888.09;;;9.04;61.38
49342;BME280;35210;41.606;-87.602;2023-02-20T05:39:45;98907.97;;;8.97;62.02
49342;BME280;35210;41.606;-87.602;2023-02-20T05:42:14;98913.97;;;8.99;61.61
49342;BME280;35210;41.606;-87.602;2023-02-20T05:44:43;98919.34;;;8.98;61.84
49342;BME280;35210;41.606;-87.602;2023-02-20T05:47:12;98924.53;;;8.88;62.30
49342;BME280;35210;41.606;-87.602;2023-02-20T05:49:40;98921.19;;;8.86;62.24
49342;BME280;35210;41.606;-87.602;2023-02-20T05:52:11;98917.34;;;8.90;61.75
49342;BME280;35210;41.606;-87.602;2023-02-20T05:54:40;98920.47;;;8.84;62.03
49342;BME280;35210;41.606;-87.602;2023-02-20T05:57:10;98917.59;;;8.76;62.63
49342;BME280;35210;41.606;-87.602;2023-02-20T05:59:39;98915.91;;;8.75;62.29
49342;BME280;35210;41.606;-87.602;2023-02-20T06:02:07;98917.69;;;8.74;62.48
49342;BME280;35210;41.606;-87.602;2023-02-20T06:04:37;98919.72;;;8.71;62.59
49342;BME280;35210;41.606;-87.602;2023-02-20T06:07:09;98932.19;;;8.69;62.85
49342;BME280;35210;41.606;-87.602;2023-02-20T06:09:40;98928.59;;;8.70;62.39
49342;BME280;35210;41.606;-87.602;2023-02-20T06:12:08;98929.19;;;8.73;62.04
49342;BME280;35210;41.606;-87.602;2023-02-20T06:14:39;98929.78;;;8.66;62.45
49342;BME280;35210;41.606;-87.602;2023-02-20T06:17:09;98930.97;;;8.62;62.73
49342;BME280;35210;41.606;-87.602;2023-02-20T06:19:37;98915.19;;;8.62;62.94
49342;BME280;35210;41.606;-87.602;2023-02-20T06:22:06;98914.56;;;8.58;63.08
49342;BME280;35210;41.606;-87.602;2023-02-20T06:24:36;98916.59;;;8.54;62.85
49342;BME280;35210;41.606;-87.602;2023-02-20T06:27:04;98910.63;;;8.52;63.17
49342;BME280;35210;41.606;-87.602;2023-02-20T06:29:33;98911.47;;;8.53;62.93
49342;BME280;35210;41.606;-87.602;2023-02-20T06:32:01;98912.31;;;8.53;62.95
49342;BME280;35210;41.606;-87.602;2023-02-20T06:34:30;98902.34;;;8.46;63.01
49342;BME280;35210;41.606;-87.602;2023-02-20T06:36:59;98907.50;;;8.47;63.04
49342;BME280;35210;41.606;-87.602;2023-02-20T06:39:29;98913.13;;;8.43;63.27
49342;BME280;35210;41.606;-87.602;2023-02-20T06:41:59;98919.69;;;8.37;63.20
49342;BME280;35210;41.606;-87.602;2023-02-20T06:44:27;98917.06;;;8.37;62.90
49342;BME280;35210;41.606;-87.602;2023-02-20T06:46:55;98913.69;;;8.35;63.48
49342;BME280;35210;41.606;-87.602;2023-02-20T06:49:23;98905.34;;;8.41;63.03
49342;BME280;35210;41.606;-87.602;2023-02-20T06:51:52;98910.34;;;8.33;63.24
49342;BME280;35210;41.606;-87.602;2023-02-20T06:54:21;98922.00;;;8.18;64.12
49342;BME280;35210;41.606;-87.602;2023-02-20T06:56:49;98917.00;;;8.15;63.78
49342;BME280;35210;41.606;-87.602;2023-02-20T06:59:19;98915.66;;;8.09;64.88
49342;BME280;35210;41.606;-87.602;2023-02-20T07:01:47;98926.06;;;8.11;64.48
49342;BME280;35210;41.606;-87.602;2023-02-20T07:04:17;98925.81;;;8.03;65.24
49342;BME280;35210;41.606;-87.602;2023-02-20T07:06:46;98924.84;;;8.04;65.23
49342;BME280;35210;41.606;-87.602;2023-02-20T07:09:14;98924.34;;;7.99;65.44
49342;BME280;35210;41.606;-87.602;2023-02-20T07:11:43;98917.88;;;7.91;65.89
49342;BME280;35210;41.606;-87.602;2023-02-20T07:14:12;98908.66;;;7.86;66.43
49342;BME280;35210;41.606;-87.602;2023-02-20T07:16:42;98922.19;;;7.93;65.58
49342;BME280;35210;41.606;-87.602;2023-02-20T07:19:11;98934.31;;;7.82;66.49
49342;BME280;35210;41.606;-87.602;2023-02-20T07:21:41;98942.66;;;7.76;66.73
49342;BME280;35210;41.606;-87.602;2023-02-20T07:24:09;98951.50;;;7.75;66.39
49342;BME280;35210;41.606;-87.602;2023-02-20T07:26:38;98946.56;;;7.71;66.80
49342;BME280;35210;41.606;-87.602;2023-02-20T07:29:06;98953.09;;;7.65;66.96
49342;BME280;35210;41.606;-87.602;2023-02-20T07:31:35;98952.59;;;7.60;67.68
49342;BME280;35210;41.606;-87.602;2023-02-20T07:34:06;98965.44;;;7.52;67.66
49342;BME280;35210;41.606;-87.602;2023-02-20T07:36:34;98980.59;;;7.48;68.45
49342;BME280;35210;41.606;-87.602;2023-02-20T07:39:03;98977.34;;;7.45;68.51
49342;BME280;35210;41.606;-87.602;2023-02-20T07:41:33;98980.72;;;7.47;68.09
49342;BME280;35210;41.606;-87.602;2023-02-20T07:44:02;98967.09;;;7.42;67.56
49342;BME280;35210;41.606;-87.602;2023-02-20T07:46:30;98979.59;;;7.38;68.14
49342;BME280;35210;41.606;-87.602;2023-02-20T07:48:59;98972.78;;;7.36;68.29
49342;BME280;35210;41.606;-87.602;2023-02-20T07:51:30;98974.47;;;7.37;67.89
49342;BME280;35210;41.606;-87.602;2023-02-20T07:53:58;98986.97;;;7.33;68.27
49342;BME280;35210;41.606;-87.602;2023-02-20T07:56:27;98984.16;;;7.23;68.25
49342;BME280;35210;41.606;-87.602;2023-02-20T07:58:56;98982.91;;;7.16;68.27
49342;BME280;35210;41.606;-87.602;2023-02-20T08:01:24;98991.31;;;6.96;69.15
49342;BME280;35210;41.606;-87.602;2023-02-20T08:03:54;99001.94;;;6.82;69.92
49342;BME280;35210;41.606;-87.602;2023-02-20T08:06:23;98993.75;;;6.86;69.71
49342;BME280;35210;41.606;-87.602;2023-02-20T08:08:53;98983.66;;;6.80;69.41
49342;BME280;35210;41.606;-87.602;2023-02-20T08:11:22;98987.00;;;6.70;70.11
49342;BME280;35210;41.606;-87.602;2023-02-20T08:13:51;98985.78;;;6.63;70.11
49342;BME280;35210;41.606;-87.602;2023-02-20T08:16:20;98985.78;;;6.50;70.05
49342;BME280;35210;41.606;-87.602;2023-02-20T08:18:48;98985.34;;;6.43;70.62
49342;BME280;35210;41.606;-87.602;2023-02-20T08:21:17;98985.00;;;6.35;70.15
49342;BME280;35210;41.606;-87.602;2023-02-20T08:23:45;98984.47;;;6.30;70.11
49342;BME280;35210;41.606;-87.602;2023-02-20T08:26:15;98988.56;;;6.21;69.78
49342;BME280;35210;41.606;-87.602;2023-02-20T08:28:45;98983.06;;;6.12;69.89
49342;BME280;35210;41.606;-87.602;2023-02-20T08:31:14;98988.38;;;5.98;70.32
49342;BME280;35210;41.606;-87.602;2023-02-20T08:33:43;98990.22;;;5.83;70.75
49342;BME280;35210;41.606;-87.602;2023-02-20T08:36:11;98996.69;;;5.77;71.34
49342;BME280;35210;41.606;-87.602;2023-02-20T08:38:40;98997.28;;;5.68;71.59
49342;BME280;35210;41.606;-87.602;2023-02-20T08:41:09;99009.47;;;5.55;72.34
49342;BME280;35210;41.606;-87.602;2023-02-20T08:43:42;99004.81;;;5.46;73.80
49342;BME280;35210;41.606;-87.602;2023-02-20T08:46:10;99008.91;;;5.50;73.49
49342;BME280;35210;41.606;-87.602;2023-02-20T08:48:39;99015.94;;;5.49;73.78
49342;BME280;35210;41.606;-87.602;2023-02-20T08:51:08;99011.16;;;5.42;73.94
49342;BME280;35210;41.606;-87.602;2023-02-20T08:53:37;99002.75;;;5.37;73.90
49342;BME280;35210;41.606;-87.602;2023-02-20T08:56:08;99010.91;;;5.32;73.73
49342;BME280;35210;41.606;-87.602;2023-02-20T08:58:39;99010.63;;;5.22;74.57
49342;BME280;35210;41.606;-87.602;2023-02-20T09:01:08;99009.16;;;5.18;74.73
49342;BME280;35210;41.606;-87.602;2023-02-20T09:03:37;99012.06;;;5.14;75.16
49342;BME280;35210;41.606;-87.602;2023-02-20T09:06:07;99003.94;;;5.18;73.72
49342;BME280;35210;41.606;-87.602;2023-02-20T09:08:35;99003.84;;;5.06;74.54
49342;BME280;35210;41.606;-87.602;2023-02-20T09:11:04;98998.97;;;5.00;74.98
49342;BME280;35210;41.606;-87.602;2023-02-20T09:13:33;98998.59;;;5.06;74.94
49342;BME280;35210;41.606;-87.602;2023-02-20T09:16:06;98989.91;;;5.05;74.38
49342;BME280;35210;41.606;-87.602;2023-02-20T09:18:35;98992.63;;;4.89;75.21
49342;BME280;35210;41.606;-87.602;2023-02-20T09:21:08;98983.38;;;4.84;76.28
49342;BME280;35210;41.606;-87.602;2023-02-20T09:23:37;98972.72;;;4.87;76.34
49342;BME280;35210;41.606;-87.602;2023-02-20T09:26:05;98986.56;;;4.89;76.76
49342;BME280;35210;41.606;-87.602;2023-02-20T09:28:35;98975.53;;;4.98;76.25
49342;BME280;35210;41.606;-87.602;2023-02-20T09:31:05;98967.69;;;4.98;75.66
49342;BME280;35210;41.606;-87.602;2023-02-20T09:33:33;98969.44;;;4.98;75.07
49342;BME280;35210;41.606;-87.602;2023-02-20T09:36:03;98963.94;;;4.88;75.88
49342;BME280;35210;41.606;-87.602;2023-02-20T09:38:32;98955.72;;;4.80;76.87
49342;BME280;35210;41.606;-87.602;2023-02-20T09:41:00;98966.28;;;4.78;76.69
49342;BME280;35210;41.606;-87.602;2023-02-20T09:43:38;98953.84;;;4.82;76.70
49342;BME280;35210;41.606;-87.602;2023-02-20T09:46:15;98960.59;;;4.86;76.23
49342;BME280;35210;41.606;-87.602;2023-02-20T09:48:53;98959.91;;;4.82;75.81
49342;BME280;35210;41.606;-87.602;2023-02-20T09:51:29;98963.09;;;4.87;73.64
49342;BME280;35210;41.606;-87.602;2023-02-20T09:54:04;98961.59;;;4.83;74.47
49342;BME280;35210;41.606;-87.602;2023-02-20T09:56:39;98960.59;;;4.86;73.70
49342;BME280;35210;41.606;-87.602;2023-02-20T09:59:15;98967.69;;;4.84;72.80
49342;BME280;35210;41.606;-87.602;2023-02-20T10:01:51;98972.72;;;4.87;73.14
49342;BME280;35210;41.606;-87.602;2023-02-20T10:04:24;98974.31;;;4.89;71.32
49342;BME280;35210;41.606;-87.602;2023-02-20T10:07:01;98972.91;;;4.84;71.23
49342;BME280;35210;41.606;-87.602;2023-02-20T10:09:31;98976.38;;;4.84;71.55
49342;BME280;35210;41.606;-87.602;2023-02-20T10:12:10;98975.34;;;4.87;71.11
49342;BME280;35210;41.606;-87.602;2023-02-20T10:17:58;98972.63;;;4.88;70.15
49342;BME280;35210;41.606;-87.602;2023-02-20T10:20:37;98973.38;;;4.90;70.46
49342;BME280;35210;41.606;-87.602;2023-02-20T10:23:16;98974.97;;;4.93;70.16
49342;BME280;35210;41.606;-87.602;2023-02-20T10:25:53;98975.53;;;4.98;68.44
49342;BME280;35210;41.606;-87.602;2023-02-20T10:28:23;98968.16;;;4.90;68.68
49342;BME280;35210;41.606;-87.602;2023-02-20T10:30:58;98967.31;;;4.90;68.72
49342;BME280;35210;41.606;-87.602;2023-02-20T10:33:34;98971.78;;;4.88;68.56
49342;BME280;35210;41.606;-87.602;2023-02-20T10:36:11;98964.78;;;4.88;67.96
49342;BME280;35210;41.606;-87.602;2023-02-20T10:38:45;98963.00;;;4.89;68.11
49342;BME280;35210;41.606;-87.602;2023-02-20T10:41:20;98966.75;;;4.85;68.49
49342;BME280;35210;41.606;-87.602;2023-02-20T10:43:54;98964.88;;;4.87;67.84
49342;BME280;35210;41.606;-87.602;2023-02-20T10:46:31;98963.19;;;4.86;67.48
49342;BME280;35210;41.606;-87.602;2023-02-20T10:49:07;98967.78;;;4.82;67.42
49342;BME280;35210;41.606;-87.602;2023-02-20T10:51:42;98969.72;;;4.79;68.07
49342;BME280;35210;41.606;-87.602;2023-02-20T10:54:17;98974.97;;;4.79;67.96
49342;BME280;35210;41.606;-87.602;2023-02-20T10:56:53;98970.56;;;4.79;68.11
49342;BME280;35210;41.606;-87.602;2023-02-20T10:59:29;98973.19;;;4.79;67.98
49342;BME280;35210;41.606;-87.602;2023-02-20T11:02:03;98968.06;;;4.78;67.50
49342;BME280;35210;41.606;-87.602;2023-02-20T11:04:38;98969.91;;;4.76;67.49
49342;BME280;35210;41.606;-87.602;2023-02-20T11:07:11;98983.09;;;4.74;67.06
49342;BME280;35210;41.606;-87.602;2023-02-20T11:09:43;98982.34;;;4.72;67.27
49342;BME280;35210;41.606;-87.602;2023-02-20T11:12:20;98973.66;;;4.72;67.66
49342;BME280;35210;41.606;-87.602;2023-02-20T11:14:52;98971.97;;;4.71;68.14
49342;BME280;35210;41.606;-87.602;2023-02-20T11:17:27;98975.78;;;4.65;68.40
49342;BME280;35210;41.606;-87.602;2023-02-20T11:19:58;98961.88;;;4.65;68.51
49342;BME280;35210;41.606;-87.602;2023-02-20T11:22:42;98971.59;;;4.62;68.71
49342;BME280;35210;41.606;-87.602;2023-02-20T11:25:16;98967.28;;;4.61;68.72
49342;BME280;35210;41.606;-87.602;2023-02-20T11:27:47;98965.78;;;4.57;68.13
49342;BME280;35210;41.606;-87.602;2023-02-20T11:30:27;98971.03;;;4.57;68.12
49342;BME280;35210;41.606;-87.602;2023-02-20T11:33:01;98974.56;;;4.56;67.72
49342;BME280;35210;41.606;-87.602;2023-02-20T11:35:34;98974.56;;;4.56;67.68
49342;BME280;35210;41.606;-87.602;2023-02-20T11:38:26;98969.34;;;4.56;68.82
49342;BME280;35210;41.606;-87.602;2023-02-20T11:47:19;98950.66;;;4.48;69.84
49342;BME280;35210;41.606;-87.602;2023-02-20T11:49:49;98935.19;;;4.45;69.38
49342;BME280;35210;41.606;-87.602;2023-02-20T11:52:37;98946.75;;;4.41;69.08
49342;BME280;35210;41.606;-87.602;2023-02-20T11:55:16;98963.56;;;4.37;69.46
49342;BME280;35210;41.606;-87.602;2023-02-20T11:57:47;98943.00;;;4.31;69.34
49342;BME280;35210;41.606;-87.602;2023-02-20T12:00:17;98932.91;;;4.25;70.49
49342;BME280;35210;41.606;-87.602;2023-02-20T12:02:49;98933.28;;;4.19;69.87
49342;BME280;35210;41.606;-87.602;2023-02-20T12:05:18;98940.34;;;4.17;70.62
49342;BME280;35210;41.606;-87.602;2023-02-20T12:07:58;98954.19;;;4.19;70.30
49342;BME280;35210;41.606;-87.602;2023-02-20T12:10:40;98948.38;;;4.14;71.21
49342;BME280;35210;41.606;-87.602;2023-02-20T12:13:12;98936.25;;;4.13;71.65
49342;BME280;35210;41.606;-87.602;2023-02-20T12:15:46;98936.34;;;4.11;71.40
49342;BME280;35210;41.606;-87.602;2023-02-20T12:18:50;98926.81;;;4.10;71.15
49342;BME280;35210;41.606;-87.602;2023-02-20T12:21:30;98931.94;;;4.12;71.34
49342;BME280;35210;41.606;-87.602;2023-02-20T12:24:16;98925.78;;;4.13;71.59
49342;BME280;35210;41.606;-87.602;2023-02-20T12:26:51;98923.94;;;4.15;71.43
49342;BME280;35210;41.606;-87.602;2023-02-20T12:29:39;98925.69;;;4.14;72.28
49342;BME280;35210;41.606;-87.602;2023-02-20T12:32:21;98951.00;;;4.14;71.99
49342;BME280;35210;41.606;-87.602;2023-02-20T12:35:09;98950.81;;;4.17;71.68
49342;BME280;35210;41.606;-87.602;2023-02-20T12:37:51;98951.84;;;4.14;72.25
49342;BME280;35210;41.606;-87.602;2023-02-20T12:40:48;98946.69;;;4.13;72.83
49342;BME280;35210;41.606;-87.602;2023-02-20T12:43:26;98953.59;;;4.14;72.65
49342;BME280;35210;41.606;-87.602;2023-02-20T12:46:06;98954.53;;;4.13;72.72
49342;BME280;35210;41.606;-87.602;2023-02-20T12:48:45;98943.91;;;4.16;72.18
49342;BME280;35210;41.606;-87.602;2023-02-20T12:51:26;98950.81;;;4.17;72.87
49342;BME280;35210;41.606;-87.602;2023-02-20T12:54:12;98942.22;;;4.15;72.99
49342;BME280;35210;41.606;-87.602;2023-02-20T12:56:54;98952.50;;;4.18;72.66
49342;BME280;35210;41.606;-87.602;2023-02-20T12:59:29;98955.84;;;4.20;72.67
49342;BME280;35210;41.606;-87.602;2023-02-20T13:02:05;98958.47;;;4.20;73.22
49342;BME280;35210;41.606;-87.602;2023-02-20T13:04:46;98959.13;;;4.23;72.71
49342;BME280;35210;41.606;-87.602;2023-02-20T13:07:22;98964.44;;;4.22;73.25
49342;BME280;35210;41.606;-87.602;2023-02-20T13:09:58;98968.84;;;4.21;73.17
49342;BME280;35210;41.606;-87.602;2023-02-20T13:12:31;98973.03;;;4.24;73.51
49342;BME280;35210;41.606;-87.602;2023-02-20T13:15:13;98962.59;;;4.24;74.20
49342;BME280;35210;41.606;-87.602;2023-02-20T13:17:50;98965.88;;;4.27;73.99
49342;BME280;35210;41.606;-87.602;2023-02-20T13:20:23;98961.28;;;4.31;73.66
49342;BME280;35210;41.606;-87.602;2023-02-20T13:23:01;98956.91;;;4.32;73.66
49342;BME280;35210;41.606;-87.602;2023-02-20T13:28:39;98960.94;;;4.37;73.65
49342;BME280;35210;41.606;-87.602;2023-02-20T13:31:16;98960.66;;;4.42;74.66
49342;BME280;35210;41.606;-87.602;2023-02-20T13:33:50;98954.94;;;4.49;74.59
49342;BME280;35210;41.606;-87.602;2023-02-20T13:36:43;98952.72;;;4.57;74.09
49342;BME280;35210;41.606;-87.602;2023-02-20T13:39:33;98951.31;;;4.66;74.27